createdAt,value
2022-11-13T00:01:17.431Z,3.80
2022-11-13T00:03:45.840Z,3.80
2022-11-13T00:06:24.538Z,3.70
2022-11-13T00:08:56.307Z,3.80
2022-11-13T00:11:25.778Z,3.70
2022-11-13T00:13:54.074Z,3.70
2022-11-13T00:16:23.036Z,3.70
2022-11-13T00:18:51.290Z,3.70
2022-11-13T00:21:21.352Z,3.70
2022-11-13T00:23:50.023Z,3.60
2022-11-13T00:26:21.807Z,3.70
2022-11-13T00:32:03.854Z,3.70
2022-11-13T00:34:47.184Z,3.60
2022-11-13T00:37:16.879Z,3.50
2022-11-13T00:39:45.629Z,3.60
2022-11-13T00:42:16.730Z,3.70
2022-11-13T00:44:45.293Z,3.80
2022-11-13T00:47:14.274Z,3.70
2022-11-13T00:49:42.476Z,3.70
2022-11-13T00:52:10.673Z,3.50
2022-11-13T00:54:38.926Z,3.50
2022-11-13T00:57:07.749Z,3.40
2022-11-13T00:59:37.422Z,3.50
2022-11-13T01:02:05.818Z,3.40
2022-11-13T01:04:34.152Z,3.30
2022-11-13T01:07:02.608Z,3.20
2022-11-13T01:09:30.951Z,3.30
2022-11-13T01:12:00.652Z,3.30
2022-11-13T01:14:28.971Z,3.30
2022-11-13T01:16:58.549Z,3.30
2022-11-13T01:19:28.320Z,3.30
2022-11-13T01:22:00.019Z,3.20
2022-11-13T01:24:28.447Z,3.10
2022-11-13T01:26:57.190Z,3.00
2022-11-13T01:29:25.439Z,3.10
2022-11-13T01:41:24.842Z,3.10
2022-11-13T01:43:54.124Z,3.20
2022-11-13T01:46:33.233Z,3.20
2022-11-13T01:49:12.518Z,3.20
2022-11-13T01:51:47.664Z,3.20
2022-11-13T01:54:21.631Z,3.30
2022-11-13T01:56:50.366Z,3.20
2022-11-13T01:59:22.853Z,3.20
2022-11-13T02:01:51.339Z,3.20
2022-11-13T02:04:19.628Z,3.20
2022-11-13T02:06:53.345Z,3.10
2022-11-13T02:09:26.326Z,3.00
2022-11-13T02:11:55.248Z,3.00
2022-11-13T02:14:26.925Z,3.00
2022-11-13T02:16:58.980Z,2.90
2022-11-13T02:19:31.104Z,2.80
2022-11-13T02:22:08.179Z,2.90
2022-11-13T02:24:44.967Z,3.00
2022-11-13T02:27:21.435Z,3.00
2022-11-13T02:29:49.686Z,3.00
2022-11-13T02:32:18.445Z,2.90
2022-11-13T02:34:46.704Z,2.70
2022-11-13T02:37:14.950Z,2.70
2022-11-13T02:39:44.527Z,2.60
2022-11-13T02:42:13.051Z,2.60
2022-11-13T02:44:41.270Z,2.60
2022-11-13T02:47:09.512Z,2.60
2022-11-13T02:49:37.806Z,2.60
2022-11-13T02:52:06.831Z,2.70
2022-11-13T02:54:35.284Z,2.60
2022-11-13T02:57:05.061Z,2.60
2022-11-13T02:59:33.247Z,2.70
2022-11-13T03:02:13.880Z,2.60
2022-11-13T03:05:11.401Z,2.60
2022-11-13T03:07:41.040Z,2.70
2022-11-13T03:10:10.965Z,2.60
2022-11-13T03:12:54.729Z,2.70
2022-11-13T03:15:25.469Z,2.70
2022-11-13T03:17:54.140Z,2.60
2022-11-13T03:20:22.556Z,2.60
2022-11-13T03:22:52.075Z,2.60
2022-11-13T03:25:21.763Z,2.50
2022-11-13T03:27:53.305Z,2.50
2022-11-13T03:30:23.177Z,2.50
2022-11-13T03:32:56.053Z,2.50
2022-11-13T03:35:31.264Z,2.40
2022-11-13T03:38:08.278Z,2.40
2022-11-13T03:40:36.699Z,2.40
2022-11-13T03:43:12.648Z,2.30
2022-11-13T03:45:53.092Z,2.40
2022-11-13T03:48:22.532Z,2.30
2022-11-13T03:50:53.843Z,2.40
2022-11-13T03:53:22.544Z,2.10
2022-11-13T03:55:50.900Z,2.10
2022-11-13T03:58:21.039Z,2.20
2022-11-13T04:00:49.865Z,2.20
2022-11-13T04:03:18.482Z,2.20
2022-11-13T04:05:53.478Z,2.20
2022-11-13T04:08:21.687Z,2.30
2022-11-13T04:10:51.478Z,2.30
2022-11-13T04:13:25.338Z,2.30
2022-11-13T04:15:54.903Z,2.30
2022-11-13T04:18:24.314Z,2.30
2022-11-13T04:20:54.274Z,2.20
2022-11-13T04:23:25.101Z,2.30
2022-11-13T04:25:53.393Z,2.30
2022-11-13T04:28:24.134Z,2.30
2022-11-13T04:30:55.303Z,2.30
2022-11-13T04:33:26.157Z,2.20
2022-11-13T04:36:00.939Z,2.30
2022-11-13T04:38:29.459Z,2.30
2022-11-13T04:41:12.827Z,2.40
2022-11-13T04:43:43.105Z,2.40
2022-11-13T04:46:14.690Z,2.40
2022-11-13T04:48:46.902Z,2.20
2022-11-13T04:51:15.473Z,2.00
2022-11-13T04:53:43.747Z,2.00
2022-11-13T04:56:12.102Z,2.00
2022-11-13T04:58:41.397Z,2.10
2022-11-13T05:01:11.629Z,2.10
2022-11-13T05:03:40.064Z,2.20
2022-11-13T05:06:10.756Z,2.20
2022-11-13T05:08:39.675Z,2.10
2022-11-13T05:11:08.071Z,2.00
2022-11-13T05:13:37.900Z,1.90
2022-11-13T05:16:12.066Z,2.00
2022-11-13T05:18:42.375Z,1.90
2022-11-13T05:21:14.321Z,1.90
2022-11-13T05:23:49.739Z,2.00
2022-11-13T05:26:38.083Z,1.90
2022-11-13T05:29:39.664Z,2.00
2022-11-13T05:32:42.723Z,2.10
2022-11-13T05:35:13.320Z,2.20
2022-11-13T05:37:41.592Z,1.80
2022-11-13T05:40:13.636Z,1.80
2022-11-13T05:42:43.285Z,1.90
2022-11-13T05:45:12.615Z,2.00
2022-11-13T05:47:43.639Z,1.80
2022-11-13T05:50:12.252Z,1.80
2022-11-13T05:52:41.575Z,1.70
2022-11-13T05:55:14.093Z,1.80
2022-11-13T05:57:43.586Z,1.60
2022-11-13T06:00:13.318Z,1.70
2022-11-13T06:02:45.184Z,1.60
2022-11-13T06:05:17.628Z,1.60
2022-11-13T06:07:46.128Z,1.60
2022-11-13T06:10:14.278Z,1.60
2022-11-13T06:12:42.474Z,1.60
2022-11-13T06:15:11.665Z,1.60
2022-11-13T06:17:39.894Z,1.80
2022-11-13T06:20:11.499Z,1.60
2022-11-13T06:22:39.846Z,1.50
2022-11-13T06:25:09.156Z,1.60
2022-11-13T06:27:37.337Z,1.50
2022-11-13T06:30:11.435Z,1.50
2022-11-13T06:32:39.644Z,1.50
2022-11-13T06:35:11.116Z,1.50
2022-11-13T06:37:39.299Z,1.50
2022-11-13T06:40:10.573Z,1.50
2022-11-13T06:45:08.992Z,1.40
2022-11-13T06:50:16.995Z,1.50
2022-11-13T06:52:46.049Z,1.50
2022-11-13T06:55:14.324Z,1.60
2022-11-13T06:57:42.359Z,1.60
2022-11-13T07:00:12.313Z,1.60
2022-11-13T07:02:41.774Z,1.50
2022-11-13T07:05:11.436Z,1.50
2022-11-13T07:07:39.746Z,1.40
2022-11-13T07:10:09.128Z,1.50
2022-11-13T07:12:37.820Z,1.50
2022-11-13T07:15:08.834Z,1.50
2022-11-13T07:17:37.120Z,1.50
2022-11-13T07:20:07.786Z,1.60
2022-11-13T07:22:39.725Z,1.50
2022-11-13T07:25:09.196Z,1.50
2022-11-13T07:27:38.665Z,1.70
2022-11-13T07:30:12.574Z,1.60
2022-11-13T07:32:40.855Z,1.50
2022-11-13T07:35:10.188Z,1.60
2022-11-13T07:37:45.910Z,1.60
2022-11-13T07:40:15.533Z,1.70
2022-11-13T07:42:43.748Z,1.50
2022-11-13T07:45:13.335Z,1.70
2022-11-13T07:47:45.077Z,1.60
2022-11-13T07:50:14.553Z,1.70
2022-11-13T07:53:00.787Z,1.80
2022-11-13T07:55:29.614Z,1.80
2022-11-13T07:57:59.751Z,1.60
2022-11-13T08:10:34.585Z,1.40
2022-11-13T08:13:04.682Z,1.60
2022-11-13T08:15:35.012Z,1.70
2022-11-13T08:18:08.544Z,1.70
2022-11-13T08:20:37.906Z,1.80
2022-11-13T08:23:06.959Z,1.70
2022-11-13T08:25:38.073Z,1.70
2022-11-13T08:28:13.186Z,1.90
2022-11-13T08:30:44.895Z,1.70
2022-11-13T08:33:15.032Z,1.80
2022-11-13T08:35:53.073Z,1.80
2022-11-13T08:38:22.242Z,2.00
2022-11-13T08:40:52.654Z,2.10
2022-11-13T08:43:20.915Z,2.00
2022-11-13T08:45:50.812Z,2.10
2022-11-13T08:48:21.859Z,2.40
2022-11-13T08:50:53.805Z,2.30
2022-11-13T08:53:25.775Z,2.10
2022-11-13T08:56:54.723Z,2.20
2022-11-13T08:59:27.287Z,2.00
2022-11-13T09:01:59.386Z,2.40
2022-11-13T09:07:32.405Z,2.00
2022-11-13T09:10:07.345Z,1.90
2022-11-13T09:12:37.202Z,1.90
2022-11-13T09:15:08.122Z,2.10
2022-11-13T09:17:40.682Z,2.20
2022-11-13T09:20:13.856Z,2.40
2022-11-13T09:22:44.737Z,2.40
2022-11-13T09:25:15.937Z,2.00
2022-11-13T09:27:55.417Z,2.30
2022-11-13T09:30:25.870Z,2.30
2022-11-13T09:32:55.956Z,2.60
2022-11-13T09:35:37.247Z,2.80
2022-11-13T09:38:26.001Z,2.50
2022-11-13T09:41:00.141Z,2.70
2022-11-13T09:43:39.117Z,2.80
2022-11-13T09:46:19.104Z,2.80
2022-11-13T09:48:52.236Z,2.90
2022-11-13T09:51:29.097Z,3.00
2022-11-13T09:54:24.895Z,3.30
2022-11-13T09:57:26.498Z,3.30
2022-11-13T10:06:50.585Z,3.60
2022-11-13T10:09:27.306Z,3.60
2022-11-13T10:12:34.874Z,3.70
2022-11-13T10:15:37.005Z,3.70
2022-11-13T10:22:31.733Z,4.00
2022-11-13T10:25:03.351Z,3.80
2022-11-13T10:27:31.802Z,3.70
2022-11-13T10:30:00.535Z,3.80
2022-11-13T10:32:34.700Z,4.00
2022-11-13T10:35:24.593Z,3.90
2022-11-13T10:38:07.829Z,3.80
2022-11-13T10:40:39.269Z,4.10
2022-11-13T10:43:55.692Z,4.10
2022-11-13T10:49:32.798Z,4.10
2022-11-13T10:52:11.480Z,4.10
2022-11-13T10:58:18.192Z,4.50
2022-11-13T11:00:53.110Z,4.60
2022-11-13T11:03:24.538Z,4.60
2022-11-13T11:05:59.401Z,4.80
2022-11-13T11:08:46.033Z,4.90
2022-11-13T11:15:21.180Z,5.40
2022-11-13T11:17:57.879Z,5.90
2022-11-13T11:20:44.404Z,5.80
2022-11-13T11:23:24.063Z,5.70
2022-11-13T11:26:14.287Z,5.80
2022-11-13T11:28:49.666Z,5.70
2022-11-13T11:31:30.274Z,5.70
2022-11-13T11:34:09.148Z,5.70
2022-11-13T11:37:13.134Z,5.70
2022-11-13T11:39:47.715Z,5.80
2022-11-13T11:52:15.146Z,6.30
2022-11-13T11:55:17.897Z,6.30
2022-11-13T11:57:54.304Z,6.60
2022-11-13T12:00:43.444Z,6.60
2022-11-13T12:03:46.762Z,6.80
2022-11-13T12:06:25.713Z,7.00
2022-11-13T12:09:04.053Z,7.00
2022-11-13T12:11:42.903Z,7.00
2022-11-13T12:14:21.575Z,7.10
2022-11-13T12:16:57.971Z,7.20
2022-11-13T12:19:55.611Z,7.40
2022-11-13T12:22:44.408Z,7.50
2022-11-13T12:25:26.156Z,7.70
2022-11-13T12:28:10.381Z,7.80
2022-11-13T12:30:49.191Z,7.90
2022-11-13T12:33:27.611Z,7.90
2022-11-13T12:35:57.662Z,8.00
2022-11-13T12:38:45.841Z,8.20
2022-11-13T12:41:26.801Z,8.30
2022-11-13T12:44:27.582Z,8.10
2022-11-13T12:46:59.471Z,8.10
2022-11-13T12:49:34.175Z,8.10
2022-11-13T12:52:07.918Z,8.10
2022-11-13T12:54:39.583Z,8.20
2022-11-13T12:57:27.064Z,8.30
2022-11-13T13:00:00.667Z,8.20
2022-11-13T13:09:41.124Z,8.40
2022-11-13T13:16:25.549Z,8.60
2022-11-13T13:22:59.311Z,8.70
2022-11-13T13:25:34.154Z,8.70
2022-11-13T13:28:20.151Z,8.70
2022-11-13T13:30:57.126Z,8.70
2022-11-13T13:33:43.093Z,8.70
2022-11-13T13:36:33.822Z,8.80
2022-11-13T13:39:10.123Z,8.90
2022-11-13T13:41:53.449Z,9.00
2022-11-13T13:44:43.352Z,9.00
2022-11-13T13:47:18.975Z,9.00
2022-11-13T13:49:48.251Z,9.00
2022-11-13T13:56:08.867Z,9.00
2022-11-13T13:58:40.305Z,9.10
2022-11-13T14:01:20.249Z,9.10
2022-11-13T14:03:49.445Z,9.00
2022-11-13T14:06:23.594Z,9.00
2022-11-13T14:08:52.832Z,8.90
2022-11-13T14:11:27.276Z,9.00
2022-11-13T14:17:29.601Z,9.10
2022-11-13T14:20:01.222Z,9.10
2022-11-13T14:22:30.155Z,9.10
2022-11-13T14:25:29.580Z,9.20
2022-11-13T14:28:04.772Z,9.20
2022-11-13T14:33:53.247Z,9.10
2022-11-13T14:36:34.881Z,9.00
2022-11-13T14:39:05.875Z,8.90
2022-11-13T14:41:37.150Z,8.80
2022-11-13T14:44:09.016Z,8.80
2022-11-13T14:46:39.502Z,8.80
2022-11-13T14:49:17.124Z,8.90
2022-11-13T14:51:56.622Z,8.80
2022-11-13T14:55:00.014Z,8.70
2022-11-13T14:57:24.586Z,8.70
2022-11-13T14:59:53.111Z,8.70
2022-11-13T15:02:23.602Z,8.60
2022-11-13T15:05:01.201Z,8.60
2022-11-13T15:07:39.412Z,8.80
2022-11-13T15:10:19.958Z,8.90
2022-11-13T15:12:50.496Z,9.20
2022-11-13T15:15:28.000Z,9.20
2022-11-13T15:18:04.814Z,9.00
2022-11-13T15:20:37.478Z,8.90
2022-11-13T15:23:09.522Z,8.70
2022-11-13T15:25:39.940Z,8.90
2022-11-13T15:28:09.564Z,8.70
2022-11-13T15:30:39.525Z,8.50
2022-11-13T15:33:30.255Z,8.60
2022-11-13T15:36:22.414Z,8.60
2022-11-13T15:38:57.197Z,8.50
2022-11-13T15:41:30.655Z,8.40
2022-11-13T15:44:03.717Z,8.30
2022-11-13T15:46:40.795Z,8.20
2022-11-13T15:49:17.605Z,8.10
2022-11-13T15:51:50.776Z,7.80
2022-11-13T15:54:32.683Z,7.70
2022-11-13T16:03:20.917Z,7.70
2022-11-13T16:05:50.051Z,7.50
2022-11-13T16:08:22.198Z,7.50
2022-11-13T16:10:52.702Z,7.50
2022-11-13T16:13:21.047Z,7.50
2022-11-13T16:15:51.142Z,7.40
2022-11-13T16:18:36.043Z,7.30
2022-11-13T16:21:22.514Z,7.40
2022-11-13T16:24:03.690Z,7.40
2022-11-13T16:27:12.471Z,7.40
2022-11-13T16:29:49.217Z,7.50
2022-11-13T16:32:18.114Z,7.50
2022-11-13T16:34:54.801Z,7.40
2022-11-13T16:37:33.792Z,7.20
2022-11-13T16:40:05.897Z,7.20
2022-11-13T16:43:02.940Z,7.20
2022-11-13T16:48:44.751Z,6.90
2022-11-13T16:51:27.750Z,6.80
2022-11-13T16:54:15.963Z,6.70
2022-11-13T16:56:48.253Z,6.60
2022-11-13T16:59:20.512Z,6.60
2022-11-13T17:02:11.663Z,6.40
2022-11-13T17:05:15.994Z,6.40
2022-11-13T17:08:10.414Z,6.50
2022-11-13T17:10:44.155Z,6.30
2022-11-13T17:13:17.564Z,6.20
2022-11-13T17:15:46.285Z,6.10
2022-11-13T17:18:47.650Z,6.10
2022-11-13T17:21:18.025Z,6.00
2022-11-13T17:23:46.843Z,5.90
2022-11-13T17:26:15.912Z,5.90
2022-11-13T17:28:45.687Z,6.00
2022-11-13T17:31:32.119Z,6.00
2022-11-13T17:34:09.124Z,6.00
2022-11-13T17:36:58.001Z,5.90
2022-11-13T17:39:38.954Z,5.80
2022-11-13T17:42:08.706Z,5.90
2022-11-13T17:44:39.766Z,5.80
2022-11-13T17:47:09.231Z,5.70
2022-11-13T17:50:01.169Z,5.70
2022-11-13T17:52:37.524Z,5.60
2022-11-13T17:55:14.744Z,5.60
2022-11-13T17:58:13.161Z,5.60
2022-11-13T18:00:57.257Z,5.60
2022-11-13T18:03:52.864Z,5.50
2022-11-13T18:06:26.044Z,5.50
2022-11-13T18:08:59.033Z,5.40
2022-11-13T18:15:08.205Z,5.30
2022-11-13T18:17:48.261Z,5.20
2022-11-13T18:20:23.221Z,5.20
2022-11-13T18:22:55.309Z,5.20
2022-11-13T18:25:24.659Z,5.20
2022-11-13T18:27:52.970Z,5.10
2022-11-13T18:30:22.364Z,5.10
2022-11-13T18:33:06.165Z,5.10
2022-11-13T18:36:29.769Z,5.00
2022-11-13T18:42:01.997Z,4.90
2022-11-13T18:44:30.519Z,4.90
2022-11-13T18:50:38.375Z,4.90
2022-11-13T18:53:14.269Z,4.80
2022-11-13T18:55:42.866Z,4.80
2022-11-13T18:58:12.285Z,4.60
2022-11-13T19:00:40.666Z,4.60
2022-11-13T19:10:15.547Z,4.50
2022-11-13T19:12:46.206Z,4.40
2022-11-13T19:15:14.715Z,4.40
2022-11-13T19:17:46.199Z,4.30
2022-11-13T19:20:20.766Z,4.30
2022-11-13T19:22:51.067Z,4.30
2022-11-13T19:25:21.288Z,4.20
2022-11-13T19:27:54.125Z,4.10
2022-11-13T19:30:24.331Z,4.10
2022-11-13T19:39:01.593Z,4.10
2022-11-13T19:41:32.235Z,4.10
2022-11-13T19:44:01.518Z,4.10
2022-11-13T19:46:32.102Z,4.10
2022-11-13T19:49:00.608Z,4.00
2022-11-13T19:51:29.402Z,3.90
2022-11-13T19:53:59.204Z,3.90
2022-11-13T19:56:29.398Z,3.90
2022-11-13T19:59:02.383Z,3.90
2022-11-13T20:01:33.065Z,3.80
2022-11-13T20:04:07.824Z,3.80
2022-11-13T20:06:38.086Z,3.80
2022-11-13T20:09:10.280Z,3.80
2022-11-13T20:11:40.040Z,3.80
2022-11-13T20:14:22.575Z,3.80
2022-11-13T20:16:50.881Z,3.70
2022-11-13T20:19:24.315Z,3.60
2022-11-13T20:21:52.922Z,3.50
2022-11-13T20:24:22.629Z,3.50
2022-11-13T20:26:51.177Z,3.40
2022-11-13T20:29:25.733Z,3.40
2022-11-13T20:31:56.315Z,3.30
2022-11-13T20:34:25.659Z,3.30
2022-11-13T20:36:55.101Z,3.30
2022-11-13T20:39:31.414Z,3.30
2022-11-13T20:42:00.764Z,3.30
2022-11-13T20:44:34.479Z,3.40
2022-11-13T20:47:21.788Z,3.40
2022-11-13T20:49:52.544Z,3.40
2022-11-13T20:56:06.527Z,3.50
2022-11-13T20:58:49.332Z,3.40
2022-11-13T21:01:21.262Z,3.30
2022-11-13T21:03:50.213Z,3.20
2022-11-13T21:06:20.901Z,3.10
2022-11-13T21:08:49.783Z,3.10
2022-11-13T21:11:22.145Z,3.10
2022-11-13T21:20:34.603Z,2.90
2022-11-13T21:23:04.715Z,2.80
2022-11-13T21:25:33.519Z,2.80
2022-11-13T21:28:02.163Z,2.90
2022-11-13T21:30:30.945Z,2.90
2022-11-13T21:33:00.346Z,3.00
2022-11-13T21:35:28.909Z,3.00
2022-11-13T21:37:59.673Z,3.00
2022-11-13T21:40:28.355Z,3.00
2022-11-13T21:42:57.859Z,2.90
2022-11-13T21:45:26.349Z,2.90
2022-11-13T21:47:55.117Z,2.80
2022-11-13T21:50:23.827Z,2.90
2022-11-13T21:52:54.031Z,2.80
2022-11-13T21:55:26.980Z,2.80
2022-11-13T21:57:55.430Z,2.80
2022-11-13T22:00:24.091Z,2.80
2022-11-13T22:02:52.515Z,2.70
2022-11-13T22:05:22.423Z,2.70
2022-11-13T22:07:50.667Z,2.70
2022-11-13T22:10:19.432Z,2.70
2022-11-13T22:12:51.458Z,2.60
2022-11-13T22:15:20.221Z,2.60
2022-11-13T22:17:48.614Z,2.50
2022-11-13T22:20:19.394Z,2.50
2022-11-13T22:23:00.794Z,2.50
2022-11-13T22:25:35.982Z,2.50
2022-11-13T22:28:06.300Z,2.50
2022-11-13T22:30:35.023Z,2.50
2022-11-13T22:33:04.623Z,2.40
2022-11-13T22:35:33.047Z,2.30
2022-11-13T22:38:03.434Z,2.20
2022-11-13T22:40:33.537Z,2.20
2022-11-13T22:43:01.848Z,2.20
2022-11-13T22:45:31.659Z,2.20
2022-11-13T22:48:00.192Z,2.20
2022-11-13T22:50:28.677Z,2.30
2022-11-13T22:52:57.018Z,2.30
2022-11-13T22:55:40.368Z,2.30
2022-11-13T22:58:09.149Z,2.20
2022-11-13T23:00:39.210Z,2.20
2022-11-13T23:03:07.551Z,2.10
2022-11-13T23:05:36.934Z,2.00
2022-11-13T23:08:05.366Z,2.00
2022-11-13T23:10:34.382Z,2.00
2022-11-13T23:13:02.677Z,2.00
2022-11-13T23:15:31.078Z,1.90
2022-11-13T23:18:03.540Z,2.00
2022-11-13T23:20:34.247Z,2.00
2022-11-13T23:23:02.902Z,2.00
2022-11-13T23:25:33.244Z,2.00
2022-11-13T23:28:01.642Z,2.00
2022-11-13T23:30:30.805Z,2.00
2022-11-13T23:33:00.513Z,2.00
2022-11-13T23:35:29.003Z,2.10
2022-11-13T23:37:57.444Z,2.10
2022-11-13T23:40:25.740Z,2.10
2022-11-13T23:42:55.466Z,2.00
2022-11-13T23:45:24.031Z,2.00
2022-11-13T23:47:52.307Z,1.80
2022-11-13T23:50:22.183Z,1.70
2022-11-13T23:52:50.654Z,1.60
2022-11-13T23:55:21.322Z,1.40
2022-11-13T23:57:53.033Z,1.40
